createdAt,value
2019-02-16T00:04:37.476Z,2.60
2019-02-16T00:09:42.595Z,2.60
2019-02-16T00:14:47.606Z,2.60
2019-02-16T00:19:52.682Z,2.50
2019-02-16T00:24:57.691Z,2.50
2019-02-16T00:30:02.710Z,2.40
2019-02-16T00:35:07.735Z,2.50
2019-02-16T00:40:12.781Z,2.40
2019-02-16T00:45:17.789Z,2.40
2019-02-16T00:50:22.837Z,2.30
2019-02-16T00:55:27.863Z,2.20
2019-02-16T01:00:32.876Z,2.10
2019-02-16T01:05:37.880Z,2.00
2019-02-16T01:10:44.776Z,1.90
2019-02-16T01:15:49.750Z,1.90
2019-02-16T01:20:54.814Z,2.00
2019-02-16T01:25:59.835Z,2.10
2019-02-16T01:31:04.841Z,2.30
2019-02-16T01:36:09.857Z,2.50
2019-02-16T01:41:14.876Z,2.50
2019-02-16T01:46:19.902Z,2.60
2019-02-16T01:51:31.643Z,2.60
2019-02-16T01:56:31.690Z,2.80
2019-02-16T02:01:36.757Z,2.90
2019-02-16T02:06:41.843Z,3.00
2019-02-16T02:11:46.860Z,3.20
2019-02-16T02:16:51.878Z,3.20
2019-02-16T02:21:56.884Z,3.30
2019-02-16T02:27:01.889Z,3.30
2019-02-16T02:32:06.928Z,3.20
2019-02-16T02:37:11.978Z,3.10
2019-02-16T02:42:17.028Z,3.00
2019-02-16T02:47:22.068Z,2.80
2019-02-16T02:52:27.079Z,2.60
2019-02-16T02:57:32.112Z,2.50
2019-02-16T03:02:37.153Z,2.30
2019-02-16T03:07:42.204Z,2.30
2019-02-16T03:12:47.209Z,2.40
2019-02-16T03:17:52.212Z,2.50
2019-02-16T03:23:17.132Z,2.60
2019-02-16T03:28:34.481Z,2.50
2019-02-16T03:33:50.581Z,2.50
2019-02-16T03:39:06.993Z,2.60
2019-02-16T03:44:12.060Z,2.80
2019-02-16T03:49:17.349Z,2.80
2019-02-16T03:54:22.366Z,2.70
2019-02-16T03:59:27.457Z,2.60
2019-02-16T04:04:32.476Z,2.40
2019-02-16T04:09:37.549Z,2.20
2019-02-16T04:14:42.586Z,2.00
2019-02-16T04:19:47.654Z,1.90
2019-02-16T04:24:54.541Z,1.70
2019-02-16T04:29:59.607Z,1.70
2019-02-16T04:35:04.756Z,1.60
2019-02-16T04:40:09.803Z,1.60
2019-02-16T04:45:14.887Z,1.50
2019-02-16T04:50:19.898Z,1.40
2019-02-16T04:55:24.961Z,1.40
2019-02-16T05:00:29.997Z,1.40
2019-02-16T05:05:35.021Z,1.30
2019-02-16T05:10:40.037Z,1.40
2019-02-16T05:15:45.050Z,1.40
2019-02-16T05:20:50.068Z,1.30
2019-02-16T05:25:55.174Z,1.30
2019-02-16T05:31:00.302Z,1.20
2019-02-16T05:36:05.318Z,1.20
2019-02-16T05:41:10.394Z,1.20
2019-02-16T05:46:15.404Z,1.30
2019-02-16T05:51:20.421Z,1.60
2019-02-16T05:56:25.452Z,2.10
2019-02-16T06:01:30.470Z,2.20
2019-02-16T06:06:35.474Z,2.30
2019-02-16T06:11:40.498Z,2.40
2019-02-16T06:16:45.509Z,2.50
2019-02-16T06:21:50.525Z,2.60
2019-02-16T06:26:55.521Z,2.70
2019-02-16T06:32:00.534Z,2.60
2019-02-16T06:37:21.354Z,2.50
2019-02-16T06:42:26.436Z,2.40
2019-02-16T06:47:31.461Z,2.50
2019-02-16T06:52:36.502Z,2.40
2019-02-16T06:57:45.034Z,2.30
2019-02-16T07:02:50.044Z,2.30
2019-02-16T07:07:55.052Z,2.40
2019-02-16T07:13:00.067Z,2.50
2019-02-16T07:18:36.265Z,2.70
2019-02-16T07:23:41.290Z,2.80
2019-02-16T07:28:46.313Z,2.90
2019-02-16T07:33:51.313Z,3.00
2019-02-16T07:38:56.324Z,3.10
2019-02-16T07:44:23.365Z,3.10
2019-02-16T07:49:34.877Z,3.10
2019-02-16T07:54:50.068Z,3.10
2019-02-16T08:00:08.632Z,3.10
2019-02-16T08:05:20.436Z,3.20
2019-02-16T08:10:47.421Z,3.40
2019-02-16T08:16:10.220Z,3.70
2019-02-16T08:21:22.311Z,3.80
2019-02-16T08:26:44.581Z,4.00
2019-02-16T08:31:59.155Z,4.30
2019-02-16T08:37:20.781Z,4.50
2019-02-16T08:42:47.963Z,4.80
2019-02-16T08:48:17.976Z,5.00
2019-02-16T08:53:53.952Z,5.40
2019-02-16T08:59:23.979Z,5.70
2019-02-16T09:04:38.481Z,5.70
2019-02-16T09:10:04.455Z,5.90
2019-02-16T09:15:34.266Z,6.00
2019-02-16T09:21:01.250Z,6.10
2019-02-16T09:26:27.974Z,6.30
2019-02-16T09:31:50.525Z,6.50
2019-02-16T09:37:13.140Z,6.60
2019-02-16T09:42:33.632Z,6.80
2019-02-16T09:47:46.683Z,7.00
2019-02-16T09:53:12.640Z,7.30
2019-02-16T09:58:33.029Z,7.50
2019-02-16T10:04:06.068Z,7.70
2019-02-16T10:09:28.602Z,7.90
2019-02-16T10:14:58.615Z,8.10
2019-02-16T10:20:14.342Z,8.40
2019-02-16T10:25:30.795Z,8.60
2019-02-16T10:30:43.196Z,8.90
2019-02-16T10:36:04.239Z,9.00
2019-02-16T10:41:20.030Z,9.20
2019-02-16T10:46:42.541Z,9.40
2019-02-16T10:52:13.037Z,9.60
2019-02-16T10:57:35.828Z,9.70
2019-02-16T11:02:58.300Z,9.90
2019-02-16T11:08:20.842Z,10.10
2019-02-16T11:13:57.069Z,10.10
2019-02-16T11:19:27.301Z,10.20
2019-02-16T11:24:51.273Z,10.30
2019-02-16T11:30:09.853Z,10.50
2019-02-16T11:35:40.429Z,10.60
2019-02-16T11:41:19.704Z,10.70
2019-02-16T11:46:45.497Z,10.90
2019-02-16T11:52:08.491Z,11.10
2019-02-16T11:57:32.445Z,11.30
2019-02-16T12:02:45.805Z,11.40
2019-02-16T12:08:05.602Z,11.60
2019-02-16T12:13:32.708Z,11.70
2019-02-16T12:19:02.597Z,11.80
2019-02-16T12:24:30.816Z,12.00
2019-02-16T12:29:47.845Z,12.10
2019-02-16T12:35:17.905Z,12.20
2019-02-16T12:40:30.817Z,12.30
2019-02-16T12:45:50.957Z,12.40
2019-02-16T12:51:26.266Z,12.30
2019-02-16T12:57:02.493Z,12.30
2019-02-16T13:02:30.577Z,12.40
2019-02-16T13:07:50.368Z,12.50
2019-02-16T13:13:14.334Z,12.70
2019-02-16T13:18:38.296Z,12.80
2019-02-16T13:23:54.578Z,12.90
2019-02-16T13:29:08.964Z,13.00
2019-02-16T13:34:19.495Z,13.00
2019-02-16T13:39:49.341Z,13.10
2019-02-16T13:45:28.249Z,13.10
2019-02-16T13:50:55.379Z,13.10
2019-02-16T13:56:09.770Z,13.10
2019-02-16T14:01:34.826Z,13.10
2019-02-16T14:06:51.136Z,13.20
2019-02-16T14:12:14.009Z,13.20
2019-02-16T14:17:40.750Z,13.20
2019-02-16T14:22:45.769Z,13.10
2019-02-16T14:27:50.772Z,13.10
2019-02-16T14:32:55.769Z,13.20
2019-02-16T14:38:22.497Z,13.20
2019-02-16T14:43:27.495Z,13.10
2019-02-16T14:48:32.528Z,13.10
2019-02-16T14:53:37.521Z,13.10
2019-02-16T14:58:44.855Z,13.00
2019-02-16T15:03:49.856Z,13.00
2019-02-16T15:08:54.871Z,13.00
2019-02-16T15:13:59.934Z,12.90
2019-02-16T15:19:04.927Z,12.80
2019-02-16T15:24:09.961Z,12.70
2019-02-16T15:29:15.173Z,12.60
2019-02-16T15:34:20.223Z,12.40
2019-02-16T15:39:25.805Z,12.20
2019-02-16T15:44:30.920Z,12.00
2019-02-16T15:49:36.053Z,11.80
2019-02-16T15:54:41.126Z,11.70
2019-02-16T15:59:46.416Z,11.50
2019-02-16T16:04:51.424Z,11.30
2019-02-16T16:10:15.491Z,11.00
2019-02-16T16:15:46.045Z,10.80
2019-02-16T16:21:02.008Z,10.80
2019-02-16T16:26:23.748Z,10.60
2019-02-16T16:31:33.424Z,10.40
2019-02-16T16:37:00.582Z,10.40
2019-02-16T16:42:18.544Z,10.50
2019-02-16T16:47:47.902Z,10.60
2019-02-16T16:53:19.368Z,10.60
2019-02-16T16:58:41.840Z,10.70
2019-02-16T17:04:05.770Z,10.70
2019-02-16T17:09:42.402Z,10.50
2019-02-16T17:15:09.256Z,10.30
2019-02-16T17:20:36.214Z,10.30
2019-02-16T17:25:56.716Z,10.10
2019-02-16T17:31:09.365Z,10.00
2019-02-16T17:36:31.903Z,9.80
2019-02-16T17:42:01.885Z,9.60
2019-02-16T17:47:28.932Z,9.40
2019-02-16T17:52:51.668Z,9.40
2019-02-16T17:58:04.429Z,9.40
2019-02-16T18:03:23.405Z,9.40
2019-02-16T18:08:46.635Z,9.40
2019-02-16T18:14:10.543Z,9.40
2019-02-16T18:19:29.806Z,9.40
2019-02-16T18:25:02.577Z,9.40
2019-02-16T18:30:19.024Z,9.50
2019-02-16T18:35:44.026Z,9.50
2019-02-16T18:41:05.139Z,9.50
2019-02-16T18:46:32.214Z,9.40
2019-02-16T18:51:53.853Z,9.30
2019-02-16T18:57:17.117Z,9.40
2019-02-16T19:02:38.100Z,9.40
2019-02-16T19:08:04.795Z,9.30
2019-02-16T19:13:37.937Z,9.30
2019-02-16T19:19:10.454Z,9.20
2019-02-16T19:24:31.070Z,9.30
2019-02-16T19:29:54.744Z,9.30
2019-02-16T19:35:17.277Z,9.20
2019-02-16T19:40:33.517Z,9.20
2019-02-16T19:45:56.217Z,9.20
2019-02-16T19:51:20.195Z,9.30
2019-02-16T19:56:29.531Z,9.30
2019-02-16T20:01:52.941Z,9.30
2019-02-16T20:07:11.193Z,9.40
2019-02-16T20:12:28.035Z,9.40
2019-02-16T20:17:58.023Z,9.40
2019-02-16T20:23:28.046Z,9.40
2019-02-16T20:28:48.919Z,9.40
2019-02-16T20:34:25.166Z,9.50
2019-02-16T20:39:49.116Z,9.50
2019-02-16T20:45:05.945Z,9.50
2019-02-16T20:50:28.752Z,9.50
2019-02-16T20:55:52.665Z,9.40
2019-02-16T21:01:15.092Z,9.30
2019-02-16T21:06:31.787Z,9.30
2019-02-16T21:11:56.822Z,9.30
2019-02-16T21:17:23.790Z,9.30
2019-02-16T21:22:50.517Z,9.30
2019-02-16T21:28:13.107Z,9.20
2019-02-16T21:33:26.040Z,9.20
2019-02-16T21:38:45.635Z,9.10
2019-02-16T21:44:21.897Z,8.90
2019-02-16T21:49:44.868Z,8.50
2019-02-16T21:54:58.865Z,8.10
2019-02-16T22:00:29.243Z,7.80
2019-02-16T22:06:03.649Z,7.50
2019-02-16T22:11:25.441Z,7.20
2019-02-16T22:16:30.440Z,7.00
2019-02-16T22:21:35.449Z,7.00
2019-02-16T22:26:40.468Z,6.90
2019-02-16T22:31:45.490Z,6.70
2019-02-16T22:36:50.492Z,6.50
2019-02-16T22:41:55.554Z,6.30
2019-02-16T22:47:00.554Z,6.20
2019-02-16T22:52:05.586Z,6.00
2019-02-16T22:57:10.574Z,5.80
2019-02-16T23:02:16.350Z,5.60
2019-02-16T23:07:21.361Z,5.50
2019-02-16T23:12:26.357Z,5.40
2019-02-16T23:17:31.348Z,5.30
2019-02-16T23:22:36.331Z,5.20
2019-02-16T23:27:41.520Z,5.20
2019-02-16T23:32:46.513Z,5.20
2019-02-16T23:37:51.513Z,5.10
2019-02-16T23:42:56.531Z,4.90
2019-02-16T23:48:01.536Z,4.80
2019-02-16T23:53:06.703Z,4.60
2019-02-16T23:58:11.732Z,4.50
